Startpagina
METAR-TAF:

METAR-TAF

Vliegvelden :

Singapore, Singapore

Internationale luchthaven Changi

breedte: 01-22N, lengte: 103-59E, hoogte: 5 m

Actueel weer

Dit bericht is 4 uur en het 8 minuten geleden gemaakt, om 15:00 UTC
Wind 5 kt uit het noordoosten, variërend tussen het noorden en het oostzuidoosten
Temperatuur 26°C
Vochtigheid 89%
Druk 1010 hPa
Zicht 10 km of meer
Weinig wolken op 2200 ft
Gebroken wolken op 30000 ft

METAR: WSSS 201500Z 04005KT 360V110 9999 FEW022 BKN300 26/24 Q1010 NOSIG

Tijdstip: 03:08 (19:08 UTC)

Verwachting

Dit bericht is 8 uur en het 8 minuten geleden gemaakt, om 11:00 UTC
Verwachting geldig van 20 om 12 UTC tot 21 om 18 UTC
Wind 9 kt uit het noordoosten
Zicht 10 km of meer
Weinig wolken op 2000 ft, Cumulonimbus.

TAF: WSSS 201100Z 2012/2118 04009KT 9999 FEW020CB

Waarnemingen en weersverwachtingen van meer dan 4000 vliegvelden (METAR en TAF).

De beschikbare stations zijn de gele en rode punten op de kaart.

Ga met uw muis naar het station om de naam te zien.

Klik dan om waarnemingen en weersverwachtingen te zien.

kaart wijzigen: klik op de groene knoppen met een zwart kruis om in te zoomen, op de groene knop met een streepje om uit te zoomen of op de groene pijlen voor aangrenzende kaarten.


METAR-TAF: